Time;durP1;ratioP1;P1;durP2;ratioP2;P2;SDS_P1;SDS_P2;PMS_P1;PMS_P2;Temp;Humidity;BMP_temperature;BMP_pressure;BME280_temperature;BME280_humidity;BME280_pressure;Samples;Min_cycle;Max_cycle;Signal;HPM_P1;HPM_P2
2023/10/27 00:01:27;;;;;;;;;;;;;;;;;;5007064;28;20401;-74
2023/10/27 00:03:54;;;;;;;;;;;;;;;;;;5049067;28;19929;-74
2023/10/27 00:06:20;;;;;;;;;;;;;;;;;;5012213;28;19925;-74
2023/10/27 00:08:45;;;;;;;;;;;;;;;;;;5009671;28;19922;-75
2023/10/27 00:11:11;;;;;;;;;;;;;;;;;;5012514;28;19925;-74
2023/10/27 00:13:37;;;;;;;;;;;;;;;;;;5008736;28;20297;-74
2023/10/27 00:16:03;;;;;;;;;;;;;;;;;;5012161;28;19921;-74
2023/10/27 00:18:29;;;;;;;;;;;;;;;;;;5007649;28;20151;-74
2023/10/27 00:20:55;;;;;;;;;;;;;;;;;;5041641;28;19924;-75
2023/10/27 00:23:22;;;;;;;;;;;;;;;;;;5015755;28;19927;-74
2023/10/27 00:25:48;;;;;;;;;;;;;;;;;;5012360;28;19927;-75
2023/10/27 00:28:14;;;;;;;;;;;;;;;;;;5003086;28;19921;-74
2023/10/27 00:30:40;;;;;;;;;;;;;;;;;;5018043;28;20035;-74
2023/10/27 00:33:06;;;;;;;;;;;;;;;;;;5017656;28;19917;-74
2023/10/27 00:35:31;;;;;;;;;;;;;;;;;;5041708;28;19980;-74
2023/10/27 00:37:59;;;;;;;;;;;;;;;;;;5045167;28;19946;-74
2023/10/27 00:40:25;;;;;;;;;;;;;;;;;;5015290;28;20016;-74
2023/10/27 00:42:51;;;;;;;;;;;;;;;;;;5045984;28;20036;-75
2023/10/27 00:45:17;;;;;;;;;;;;;;;;;;5013940;28;20711;-74
2023/10/27 00:47:43;;;;;;;;;;;;;;;;;;4999571;28;19929;-74
2023/10/27 00:50:09;;;;;;;;;;;;;;;;;;5036304;28;19931;-74
2023/10/27 00:52:35;;;;;;;;;;;;;;;;;;5005518;28;20064;-74
2023/10/27 00:55:01;;;;;;;;;;;;;;;;;;5004547;28;19925;-74
2023/10/27 00:57:26;;;;;;;;;;;;;;;;;;5004738;28;20297;-74
2023/10/27 00:59:53;;;;;;;;;;;;;;;;;;5006209;28;20444;-74
2023/10/27 01:02:21;;;;;;;;;;;;;;;;;;5004248;28;19921;-74
2023/10/27 01:04:46;;;;;;;;;;;;;;;;;;5000583;28;19921;-75
2023/10/27 01:07:13;;;;;;;;;;;;;;;;;;5035315;28;19925;-75
2023/10/27 01:09:39;;;;;;;;;;;;;;;;;;5005723;28;20281;-74
2023/10/27 01:12:05;;;;;;;;;;;;;;;;;;5004981;28;19921;-74
2023/10/27 01:14:31;;;;;;;;;;;;;;;;;;5007580;28;19932;-74
2023/10/27 01:16:57;;;;;;;;;;;;;;;;;;5020740;28;19926;-75
2023/10/27 01:19:23;;;;;;;;;;;;;;;;;;5035037;28;19943;-74
2023/10/27 01:21:48;;;;;;;;;;;;;;;;;;5003162;28;20365;-75
2023/10/27 01:24:14;;;;;;;;;;;;;;;;;;5000018;28;19937;-74
2023/10/27 01:26:40;;;;;;;;;;;;;;;;;;5007309;28;19921;-74
2023/10/27 01:29:06;;;;;;;;;;;;;;;;;;5006046;28;19933;-74
2023/10/27 01:31:32;;;;;;;;;;;;;;;;;;5035998;28;19928;-74
2023/10/27 01:33:58;;;;;;;;;;;;;;;;;;5001677;28;19944;-74
2023/10/27 01:36:24;;;;;;;;;;;;;;;;;;5037897;28;19921;-74
2023/10/27 01:38:50;;;;;;;;;;;;;;;;;;5008356;28;19926;-74
2023/10/27 01:41:17;;;;;;;;;;;;;;;;;;5006178;28;20312;-74
2023/10/27 01:43:43;;;;;;;;;;;;;;;;;;5010681;28;19928;-74
2023/10/27 01:46:08;;;;;;;;;;;;;;;;;;5034431;28;19921;-74
2023/10/27 01:48:36;;;;;;;;;;;;;;;;;;5042833;28;20282;-75
2023/10/27 01:51:03;;;;;;;;;;;;;;;;;;5010521;28;20336;-75
2023/10/27 01:53:29;;;;;;;;;;;;;;;;;;5008307;28;19929;-74
2023/10/27 01:55:55;;;;;;;;;;;;;;;;;;5007433;28;19917;-74
2023/10/27 01:58:21;;;;;;;;;;;;;;;;;;5042036;28;20364;-74
2023/10/27 02:00:47;;;;;;;;;;;;;;;;;;5040893;28;19921;-74
2023/10/27 02:03:13;;;;;;;;;;;;;;;;;;5040258;28;19932;-74
2023/10/27 02:05:40;;;;;;;;;;;;;;;;;;5010463;28;19937;-75
2023/10/27 02:08:05;;;;;;;;;;;;;;;;;;5042186;28;19922;-74
2023/10/27 02:10:31;;;;;;;;;;;;;;;;;;5043505;28;19925;-74
2023/10/27 02:12:57;;;;;;;;;;;;;;;;;;5009299;28;19947;-74
2023/10/27 02:15:23;;;;;;;;;;;;;;;;;;5004968;28;20664;-74
2023/10/27 02:17:49;;;;;;;;;;;;;;;;;;5007645;28;19930;-74
2023/10/27 02:20:15;;;;;;;;;;;;;;;;;;5025156;28;19931;-75
2023/10/27 02:22:41;;;;;;;;;;;;;;;;;;5015471;28;19921;-74
2023/10/27 02:25:07;;;;;;;;;;;;;;;;;;5037759;28;20810;-74
2023/10/27 02:27:38;;;;;;;;;;;;;;;;;;5015236;28;19921;-74
2023/10/27 02:30:04;;;;;;;;;;;;;;;;;;5049386;28;19921;-74
2023/10/27 02:32:29;;;;;;;;;;;;;;;;;;5001604;28;20300;-74
2023/10/27 02:34:55;;;;;;;;;;;;;;;;;;5011124;28;19925;-74
2023/10/27 02:37:22;;;;;;;;;;;;;;;;;;5035693;28;19922;-74
2023/10/27 02:39:48;;;;;;;;;;;;;;;;;;5054890;28;20330;-75
2023/10/27 02:42:14;;;;;;;;;;;;;;;;;;5006925;28;19925;-74
2023/10/27 02:44:40;;;;;;;;;;;;;;;;;;5013135;28;19986;-74
2023/10/27 02:47:05;;;;;;;;;;;;;;;;;;5047131;28;19969;-74
2023/10/27 02:49:31;;;;;;;;;;;;;;;;;;5005446;28;19929;-75
2023/10/27 02:51:57;;;;;;;;;;;;;;;;;;5006917;28;19925;-74
2023/10/27 02:54:23;;;;;;;;;;;;;;;;;;5003800;28;20292;-74
2023/10/27 02:56:49;;;;;;;;;;;;;;;;;;5011374;28;19928;-74
2023/10/27 02:59:15;;;;;;;;;;;;;;;;;;5006820;28;20067;-74
2023/10/27 03:01:41;;;;;;;;;;;;;;;;;;5013446;28;20000;-74
2023/10/27 03:04:07;;;;;;;;;;;;;;;;;;5047296;28;19927;-74
2023/10/27 03:06:33;;;;;;;;;;;;;;;;;;5015955;28;19921;-74
2023/10/27 03:08:59;;;;;;;;;;;;;;;;;;5052493;28;20323;-74
2023/10/27 03:11:25;;;;;;;;;;;;;;;;;;5039376;28;19917;-74
2023/10/27 03:13:50;;;;;;;;;;;;;;;;;;5007060;28;19925;-74
2023/10/27 03:16:16;;;;;;;;;;;;;;;;;;5011738;28;19928;-74
2023/10/27 03:18:43;;;;;;;;;;;;;;;;;;5008270;28;19921;-75
2023/10/27 03:21:09;;;;;;;;;;;;;;;;;;5012753;28;19921;-74
2023/10/27 03:23:35;;;;;;;;;;;;;;;;;;5009361;28;19921;-74
2023/10/27 03:26:01;;;;;;;;;;;;;;;;;;5039332;28;19929;-74
2023/10/27 03:28:26;;;;;;;;;;;;;;;;;;5009022;28;19926;-74
2023/10/27 03:30:53;;;;;;;;;;;;;;;;;;5008432;28;20241;-74
2023/10/27 03:33:19;;;;;;;;;;;;;;;;;;5044498;28;19929;-74
2023/10/27 03:35:45;;;;;;;;;;;;;;;;;;5017156;28;20309;-74
2023/10/27 03:38:10;;;;;;;;;;;;;;;;;;5044611;28;19983;-74
2023/10/27 03:40:36;;;;;;;;;;;;;;;;;;5012697;28;19921;-74
2023/10/27 03:43:02;;;;;;;;;;;;;;;;;;5003201;28;19929;-74
2023/10/27 03:45:28;;;;;;;;;;;;;;;;;;5010494;28;20134;-74
2023/10/27 03:47:54;;;;;;;;;;;;;;;;;;5013144;28;20860;-74
2023/10/27 03:50:20;;;;;;;;;;;;;;;;;;5012712;28;19987;-74
2023/10/27 03:52:46;;;;;;;;;;;;;;;;;;5015815;28;20377;-74
2023/10/27 03:55:12;;;;;;;;;;;;;;;;;;5005132;28;19925;-74
2023/10/27 03:57:38;;;;;;;;;;;;;;;;;;5015232;28;20369;-74
2023/10/27 04:00:04;;;;;;;;;;;;;;;;;;5009678;28;19929;-74
2023/10/27 04:02:32;;;;;;;;;;;;;;;;;;5038113;28;19957;-74
2023/10/27 04:04:58;;;;;;;;;;;;;;;;;;5013265;28;19926;-74
2023/10/27 04:07:24;;;;;;;;;;;;;;;;;;5010798;28;19939;-74
2023/10/27 04:09:49;;;;;;;;;;;;;;;;;;5013549;28;20000;-74
2023/10/27 04:12:15;;;;;;;;;;;;;;;;;;5012283;28;20015;-74
2023/10/27 04:14:41;;;;;;;;;;;;;;;;;;5010455;28;20380;-75
2023/10/27 04:17:07;;;;;;;;;;;;;;;;;;5044670;28;20358;-74
2023/10/27 04:19:33;;;;;;;;;;;;;;;;;;5043793;28;19922;-74
2023/10/27 04:21:59;;;;;;;;;;;;;;;;;;5038355;28;20007;-74
2023/10/27 04:24:25;;;;;;;;;;;;;;;;;;5015982;28;19921;-75
2023/10/27 04:26:51;;;;;;;;;;;;;;;;;;5041136;28;19921;-75
2023/10/27 04:29:17;;;;;;;;;;;;;;;;;;5011441;28;20278;-74
2023/10/27 04:31:43;;;;;;;;;;;;;;;;;;5042781;28;19922;-74
2023/10/27 04:34:10;;;;;;;;;;;;;;;;;;5013771;28;19921;-74
2023/10/27 04:36:36;;;;;;;;;;;;;;;;;;5018684;28;19921;-75
2023/10/27 04:39:03;;;;;;;;;;;;;;;;;;5044786;28;19922;-75
2023/10/27 04:41:30;;;;;;;;;;;;;;;;;;5020316;28;19975;-74
2023/10/27 04:43:56;;;;;;;;;;;;;;;;;;5014317;28;19929;-74
2023/10/27 04:46:22;;;;;;;;;;;;;;;;;;5017200;28;19928;-74
2023/10/27 04:48:48;;;;;;;;;;;;;;;;;;5012263;28;19928;-75
2023/10/27 04:51:14;;;;;;;;;;;;;;;;;;5012360;28;19921;-75
2023/10/27 04:53:40;;;;;;;;;;;;;;;;;;5043354;28;20667;-75
2023/10/27 04:56:05;;;;;;;;;;;;;;;;;;5042384;28;19921;-75
2023/10/27 04:58:31;;;;;;;;;;;;;;;;;;5039070;28;20302;-75
2023/10/27 05:00:58;;;;;;;;;;;;;;;;;;5044331;28;20389;-75
2023/10/27 05:03:24;;;;;;;;;;;;;;;;;;5013727;28;20066;-75
2023/10/27 05:05:50;;;;;;;;;;;;;;;;;;5018877;28;20011;-75
2023/10/27 05:08:16;;;;;;;;;;;;;;;;;;5042465;28;20468;-74
2023/10/27 05:10:42;;;;;;;;;;;;;;;;;;5015217;28;20035;-74
2023/10/27 05:13:08;;;;;;;;;;;;;;;;;;5016007;28;19963;-74
2023/10/27 05:15:34;;;;;;;;;;;;;;;;;;5013549;28;20000;-75
2023/10/27 05:18:04;;;;;;;;;;;;;;;;;;5046361;28;20396;-75
2023/10/27 05:20:30;;;;;;;;;;;;;;;;;;5013228;28;19929;-75
2023/10/27 05:22:56;;;;;;;;;;;;;;;;;;5029452;28;20032;-75
2023/10/27 05:25:22;;;;;;;;;;;;;;;;;;5011153;28;20289;-74
2023/10/27 05:27:48;;;;;;;;;;;;;;;;;;5013026;28;19929;-74
2023/10/27 05:30:14;;;;;;;;;;;;;;;;;;5012377;28;19921;-75
2023/10/27 05:32:40;;;;;;;;;;;;;;;;;;5010394;28;19925;-75
2023/10/27 05:35:06;;;;;;;;;;;;;;;;;;5041491;28;19922;-75
2023/10/27 05:37:32;;;;;;;;;;;;;;;;;;5042543;28;19971;-74
2023/10/27 05:39:58;;;;;;;;;;;;;;;;;;5016600;28;19925;-74
2023/10/27 05:42:24;;;;;;;;;;;;;;;;;;5015541;28;20438;-74
2023/10/27 05:44:50;;;;;;;;;;;;;;;;;;5007036;28;19921;-74
2023/10/27 05:47:16;;;;;;;;;;;;;;;;;;5022969;28;20387;-74
2023/10/27 05:49:42;;;;;;;;;;;;;;;;;;5003760;28;19925;-74
2023/10/27 05:52:07;;;;;;;;;;;;;;;;;;5040496;28;19921;-75
2023/10/27 05:54:33;;;;;;;;;;;;;;;;;;5008106;28;19955;-74
2023/10/27 05:57:00;;;;;;;;;;;;;;;;;;5043270;28;19940;-73
2023/10/27 05:59:26;;;;;;;;;;;;;;;;;;5044349;28;20368;-73
2023/10/27 06:01:54;;;;;;;;;;;;;;;;;;5012504;28;19936;-73
2023/10/27 06:04:20;;;;;;;;;;;;;;;;;;5001741;28;19918;-73
2023/10/27 06:06:45;;;;;;;;;;;;;;;;;;5041023;28;20274;-73
2023/10/27 06:09:11;;;;;;;;;;;;;;;;;;5009569;28;19987;-73
2023/10/27 06:11:37;;;;;;;;;;;;;;;;;;5001672;28;19976;-73
2023/10/27 06:14:03;;;;;;;;;;;;;;;;;;5038288;28;19968;-73
2023/10/27 06:16:30;;;;;;;;;;;;;;;;;;5005571;28;20361;-73
2023/10/27 06:18:56;;;;;;;;;;;;;;;;;;5012222;28;19925;-74
2023/10/27 06:21:22;;;;;;;;;;;;;;;;;;5004915;28;21126;-73
2023/10/27 06:23:47;;;;;;;;;;;;;;;;;;5008059;28;19922;-73
2023/10/27 06:26:13;;;;;;;;;;;;;;;;;;5038166;28;19922;-73
2023/10/27 06:28:39;;;;;;;;;;;;;;;;;;5009307;28;19921;-73
2023/10/27 06:31:05;;;;;;;;;;;;;;;;;;5012494;28;19921;-73
2023/10/27 06:33:34;;;;;;;;;;;;;;;;;;5039606;28;19921;-73
2023/10/27 06:36:00;;;;;;;;;;;;;;;;;;5011980;28;20357;-74
2023/10/27 06:38:26;;;;;;;;;;;;;;;;;;5040820;28;20381;-73
2023/10/27 06:40:52;;;;;;;;;;;;;;;;;;5007483;28;20411;-74
2023/10/27 06:43:18;;;;;;;;;;;;;;;;;;5041479;28;19944;-73
2023/10/27 06:45:44;;;;;;;;;;;;;;;;;;5041489;28;19926;-74
2023/10/27 06:48:10;;;;;;;;;;;;;;;;;;5039119;28;20400;-74
2023/10/27 06:50:36;;;;;;;;;;;;;;;;;;5044396;28;19921;-74
2023/10/27 06:53:02;;;;;;;;;;;;;;;;;;5012336;28;20008;-74
2023/10/27 06:55:28;;;;;;;;;;;;;;;;;;5042659;28;19921;-73
2023/10/27 06:57:54;;;;;;;;;;;;;;;;;;5036953;28;19936;-73
2023/10/27 07:00:20;;;;;;;;;;;;;;;;;;5016743;28;19925;-74
2023/10/27 07:02:47;;;;;;;;;;;;;;;;;;5031769;28;19928;-74
2023/10/27 07:05:17;;;;;;;;;;;;;;;;;;5028257;28;20014;-74
2023/10/27 07:07:43;;;;;;;;;;;;;;;;;;5014613;28;20296;-74
2023/10/27 07:10:09;;;;;;;;;;;;;;;;;;5039113;28;19921;-74
2023/10/27 07:12:34;;;;;;;;;;;;;;;;;;5049289;28;19921;-73
2023/10/27 07:15:00;;;;;;;;;;;;;;;;;;5026393;28;19936;-73
2023/10/27 07:17:26;;;;;;;;;;;;;;;;;;5048404;28;19925;-73
2023/10/27 07:19:52;;;;;;;;;;;;;;;;;;5022485;28;20039;-73
2023/10/27 07:22:19;;;;;;;;;;;;;;;;;;5040974;28;20485;-74
2023/10/27 07:24:45;;;;;;;;;;;;;;;;;;5039194;28;19928;-74
2023/10/27 07:27:11;;;;;;;;;;;;;;;;;;5046781;28;20288;-74
2023/10/27 07:29:37;;;;;;;;;;;;;;;;;;5016932;28;19921;-74
2023/10/27 07:32:03;;;;;;;;;;;;;;;;;;5020008;28;19921;-73
2023/10/27 07:34:29;;;;;;;;;;;;;;;;;;5050810;28;19928;-73
2023/10/27 07:36:55;;;;;;;;;;;;;;;;;;5048327;28;20292;-73
2023/10/27 07:39:22;;;;;;;;;;;;;;;;;;5008245;28;19976;-74
2023/10/27 07:41:48;;;;;;;;;;;;;;;;;;5015691;28;19928;-74
2023/10/27 07:44:14;;;;;;;;;;;;;;;;;;5045972;28;19921;-73
2023/10/27 07:46:40;;;;;;;;;;;;;;;;;;5013383;28;19929;-74
2023/10/27 07:49:06;;;;;;;;;;;;;;;;;;5004334;28;19961;-75
2023/10/27 07:51:32;;;;;;;;;;;;;;;;;;5044472;28;19968;-76
2023/10/27 07:53:58;;;;;;;;;;;;;;;;;;5003605;28;19925;-74
2023/10/27 07:56:25;;;;;;;;;;;;;;;;;;5032831;28;19925;-77
2023/10/27 07:58:50;;;;;;;;;;;;;;;;;;5048776;28;20035;-76
2023/10/27 08:01:16;;;;;;;;;;;;;;;;;;5047595;28;20324;-74
2023/10/27 08:03:42;;;;;;;;;;;;;;;;;;5049206;28;20372;-72
2023/10/27 08:06:08;;;;;;;;;;;;;;;;;;5047858;28;19925;-72
2023/10/27 08:08:35;;;;;;;;;;;;;;;;;;5044835;28;19922;-72
2023/10/27 08:11:01;;;;;;;;;;;;;;;;;;5017312;28;19967;-73
2023/10/27 08:13:27;;;;;;;;;;;;;;;;;;5011374;28;19925;-73
2023/10/27 08:15:52;;;;;;;;;;;;;;;;;;5046978;28;19925;-73
2023/10/27 08:18:18;;;;;;;;;;;;;;;;;;5009820;28;19921;-73
2023/10/27 08:20:44;;;;;;;;;;;;;;;;;;5040560;28;19965;-73
2023/10/27 08:23:10;;;;;;;;;;;;;;;;;;5010419;28;19932;-73
2023/10/27 08:25:36;;;;;;;;;;;;;;;;;;5007208;28;20008;-74
2023/10/27 08:28:02;;;;;;;;;;;;;;;;;;5040406;28;20266;-74
2023/10/27 08:30:28;;;;;;;;;;;;;;;;;;5013919;28;19932;-74
2023/10/27 08:32:54;;;;;;;;;;;;;;;;;;5009896;28;19984;-74
2023/10/27 08:35:21;;;;;;;;;;;;;;;;;;5047050;28;20484;-73
2023/10/27 08:37:47;;;;;;;;;;;;;;;;;;5006321;28;20011;-74
2023/10/27 08:40:12;;;;;;;;;;;;;;;;;;5043021;28;20000;-73
2023/10/27 08:42:38;;;;;;;;;;;;;;;;;;5039321;28;20003;-74
2023/10/27 08:45:04;;;;;;;;;;;;;;;;;;5043836;28;19971;-74
2023/10/27 08:47:33;;;;;;;;;;;;;;;;;;5007851;28;19929;-74
2023/10/27 08:50:02;;;;;;;;;;;;;;;;;;5034359;28;20386;-73
2023/10/27 08:52:28;;;;;;;;;;;;;;;;;;5008666;28;19925;-74
2023/10/27 08:54:54;;;;;;;;;;;;;;;;;;5011388;28;19925;-74
2023/10/27 08:57:20;;;;;;;;;;;;;;;;;;5007193;28;20494;-74
2023/10/27 08:59:46;;;;;;;;;;;;;;;;;;5007852;28;19922;-70
2023/10/27 09:02:11;;;;;;;;;;;;;;;;;;4999332;28;19943;-72
2023/10/27 09:04:37;;;;;;;;;;;;;;;;;;5024621;28;19930;-72
2023/10/27 09:07:03;;;;;;;;;;;;;;;;;;5006598;28;19921;-71
2023/10/27 09:09:31;;;;;;;;;;;;;;;;;;5003352;28;20443;-71
2023/10/27 09:11:56;;;;;;;;;;;;;;;;;;5009086;28;19972;-71
2023/10/27 09:14:23;;;;;;;;;;;;;;;;;;5001060;28;19929;-73
2023/10/27 09:16:49;;;;;;;;;;;;;;;;;;5037114;28;20324;-73
2023/10/27 09:19:14;;;;;;;;;;;;;;;;;;5042078;28;19921;-72
2023/10/27 09:21:44;;;;;;;;;;;;;;;;;;5021719;28;19972;-71
2023/10/27 09:24:10;;;;;;;;;;;;;;;;;;5037204;28;20369;-71
2023/10/27 09:26:36;;;;;;;;;;;;;;;;;;5035056;28;19984;-73
2023/10/27 09:29:03;;;;;;;;;;;;;;;;;;5042265;28;19921;-73
2023/10/27 09:31:29;;;;;;;;;;;;;;;;;;5038728;28;19963;-74
2023/10/27 09:33:55;;;;;;;;;;;;;;;;;;5008640;28;19960;-74
2023/10/27 09:36:21;;;;;;;;;;;;;;;;;;5009321;28;19992;-75
2023/10/27 09:38:47;;;;;;;;;;;;;;;;;;5037801;28;20293;-72
2023/10/27 09:41:12;;;;;;;;;;;;;;;;;;5042611;28;19922;-72
2023/10/27 09:43:38;;;;;;;;;;;;;;;;;;5020074;28;19949;-70
2023/10/27 09:46:04;;;;;;;;;;;;;;;;;;5009653;28;19928;-70
2023/10/27 09:48:32;;;;;;;;;;;;;;;;;;5008781;28;19933;-71
2023/10/27 09:50:58;;;;;;;;;;;;;;;;;;5038118;28;19925;-72
2023/10/27 09:53:24;;;;;;;;;;;;;;;;;;5036399;28;21357;-71
2023/10/27 09:55:50;;;;;;;;;;;;;;;;;;5008209;28;19929;-71
2023/10/27 09:58:16;;;;;;;;;;;;;;;;;;5037043;28;19974;-72
2023/10/27 10:00:42;;;;;;;;;;;;;;;;;;5005126;28;20385;-70
2023/10/27 10:03:08;;;;;;;;;;;;;;;;;;5024616;28;19944;-69
2023/10/27 10:05:34;;;;;;;;;;;;;;;;;;5009727;28;19922;-70
2023/10/27 10:08:06;;;;;;;;;;;;;;;;;;5039053;28;20189;-72
2023/10/27 10:10:33;;;;;;;;;;;;;;;;;;5001263;28;20373;-72
2023/10/27 10:13:02;;;;;;;;;;;;;;;;;;5038722;28;19980;-74
2023/10/27 10:15:28;;;;;;;;;;;;;;;;;;5037309;28;19947;-74
2023/10/27 10:17:55;;;;;;;;;;;;;;;;;;5039364;28;20274;-72
2023/10/27 10:20:21;;;;;;;;;;;;;;;;;;5039341;28;19932;-70
2023/10/27 10:22:48;;;;;;;;;;;;;;;;;;5010361;28;19922;-71
2023/10/27 10:25:14;;;;;;;;;;;;;;;;;;5039528;28;19975;-70
2023/10/27 10:27:40;;;;;;;;;;;;;;;;;;5015136;28;19922;-71
2023/10/27 10:30:06;;;;;;;;;;;;;;;;;;5000577;28;20385;-72
2023/10/27 10:32:33;;;;;;;;;;;;;;;;;;5032595;28;19929;-71
2023/10/27 10:34:58;;;;;;;;;;;;;;;;;;5007253;28;19968;-71
2023/10/27 10:37:24;;;;;;;;;;;;;;;;;;5040398;28;21549;-70
2023/10/27 10:39:50;;;;;;;;;;;;;;;;;;5039062;28;20392;-72
2023/10/27 10:42:16;;;;;;;;;;;;;;;;;;5006267;28;19976;-71
2023/10/27 10:44:42;;;;;;;;;;;;;;;;;;5040035;28;19925;-70
2023/10/27 10:47:08;;;;;;;;;;;;;;;;;;5032090;28;19928;-71
2023/10/27 10:49:36;;;;;;;;;;;;;;;;;;5002153;28;19922;-70
2023/10/27 10:52:02;;;;;;;;;;;;;;;;;;5006693;28;19972;-70
2023/10/27 10:54:28;;;;;;;;;;;;;;;;;;5002704;28;20292;-71
2023/10/27 10:56:54;;;;;;;;;;;;;;;;;;5038438;28;19925;-70
2023/10/27 10:59:20;;;;;;;;;;;;;;;;;;5008281;28;19964;-72
2023/10/27 11:01:46;;;;;;;;;;;;;;;;;;5037599;28;19953;-74
2023/10/27 11:04:12;;;;;;;;;;;;;;;;;;5007239;28;19968;-73
2023/10/27 11:06:38;;;;;;;;;;;;;;;;;;5019353;28;19960;-72
2023/10/27 11:09:04;;;;;;;;;;;;;;;;;;5006390;28;19983;-72
2023/10/27 11:11:30;;;;;;;;;;;;;;;;;;5004720;28;20416;-72
2023/10/27 11:13:57;;;;;;;;;;;;;;;;;;5007209;28;19921;-73
2023/10/27 11:16:22;;;;;;;;;;;;;;;;;;5030044;28;19925;-72
2023/10/27 11:18:49;;;;;;;;;;;;;;;;;;5040122;28;19917;-72
2023/10/27 11:21:16;;;;;;;;;;;;;;;;;;5039302;28;20766;-73
2023/10/27 11:23:42;;;;;;;;;;;;;;;;;;5040180;28;19922;-72
2023/10/27 11:26:08;;;;;;;;;;;;;;;;;;5007927;28;19971;-73
2023/10/27 11:28:34;;;;;;;;;;;;;;;;;;5035245;28;20481;-73
2023/10/27 11:31:00;;;;;;;;;;;;;;;;;;5036003;28;19930;-73
2023/10/27 11:33:26;;;;;;;;;;;;;;;;;;5004360;28;19936;-71
2023/10/27 11:35:52;;;;;;;;;;;;;;;;;;5036194;28;20385;-72
2023/10/27 11:38:18;;;;;;;;;;;;;;;;;;5037775;28;19971;-72
2023/10/27 11:40:44;;;;;;;;;;;;;;;;;;5035091;28;19963;-72
2023/10/27 11:43:10;;;;;;;;;;;;;;;;;;5004105;28;20157;-72
2023/10/27 11:45:36;;;;;;;;;;;;;;;;;;5006499;28;19921;-73
2023/10/27 11:48:02;;;;;;;;;;;;;;;;;;5035118;28;20380;-73
2023/10/27 11:50:28;;;;;;;;;;;;;;;;;;5028606;28;19952;-73
2023/10/27 11:52:53;;;;;;;;;;;;;;;;;;5039167;28;19921;-73
2023/10/27 11:55:19;;;;;;;;;;;;;;;;;;5005794;28;20056;-73
2023/10/27 11:57:45;;;;;;;;;;;;;;;;;;5042005;28;20480;-72
2023/10/27 12:00:11;;;;;;;;;;;;;;;;;;5004705;28;20397;-73
2023/10/27 12:02:37;;;;;;;;;;;;;;;;;;5010197;28;20059;-73
2023/10/27 12:05:03;;;;;;;;;;;;;;;;;;5010711;28;20020;-73
2023/10/27 12:07:29;;;;;;;;;;;;;;;;;;5009814;28;19921;-73
2023/10/27 12:09:55;;;;;;;;;;;;;;;;;;5010885;28;19921;-73
2023/10/27 12:12:25;;;;;;;;;;;;;;;;;;5039750;28;19929;-72
2023/10/27 12:14:51;;;;;;;;;;;;;;;;;;5006952;28;19926;-73
2023/10/27 12:17:16;;;;;;;;;;;;;;;;;;5008287;28;20392;-72
2023/10/27 12:19:44;;;;;;;;;;;;;;;;;;5003517;28;19926;-73
2023/10/27 12:22:10;;;;;;;;;;;;;;;;;;5007355;28;19933;-72
2023/10/27 12:24:36;;;;;;;;;;;;;;;;;;5006162;28;20452;-73
2023/10/27 12:27:04;;;;;;;;;;;;;;;;;;5009369;28;20298;-73
2023/10/27 12:29:30;;;;;;;;;;;;;;;;;;5009952;28;19976;-74
2023/10/27 12:31:56;;;;;;;;;;;;;;;;;;5014299;28;19964;-74
2023/10/27 12:34:22;;;;;;;;;;;;;;;;;;5042436;28;20301;-73
2023/10/27 12:36:48;;;;;;;;;;;;;;;;;;5042223;28;19921;-72
2023/10/27 12:39:15;;;;;;;;;;;;;;;;;;5005567;28;19925;-73
2023/10/27 12:41:41;;;;;;;;;;;;;;;;;;5004886;28;19932;-73
2023/10/27 12:44:07;;;;;;;;;;;;;;;;;;5006003;28;19925;-69
2023/10/27 12:46:33;;;;;;;;;;;;;;;;;;5008483;28;19922;-69
2023/10/27 12:49:01;;;;;;;;;;;;;;;;;;5010122;28;19976;-69
2023/10/27 12:51:27;;;;;;;;;;;;;;;;;;5009163;28;19925;-69
2023/10/27 12:53:54;;;;;;;;;;;;;;;;;;5003419;28;20270;-69
2023/10/27 12:56:20;;;;;;;;;;;;;;;;;;5006530;28;19925;-68
2023/10/27 12:58:46;;;;;;;;;;;;;;;;;;5012730;28;19921;-70
2023/10/27 13:01:12;;;;;;;;;;;;;;;;;;5009924;28;19921;-70
2023/10/27 13:03:38;;;;;;;;;;;;;;;;;;5009642;28;20384;-74
2023/10/27 13:06:04;;;;;;;;;;;;;;;;;;5041770;28;19975;-70
2023/10/27 13:08:29;;;;;;;;;;;;;;;;;;5006130;28;19921;-71
2023/10/27 13:10:56;;;;;;;;;;;;;;;;;;5039615;28;20369;-71
2023/10/27 13:13:23;;;;;;;;;;;;;;;;;;5002042;28;19921;-70
2023/10/27 13:15:49;;;;;;;;;;;;;;;;;;5035411;28;19968;-72
2023/10/27 13:18:15;;;;;;;;;;;;;;;;;;5040139;28;19929;-72
2023/10/27 13:20:41;;;;;;;;;;;;;;;;;;5019674;28;19925;-72
2023/10/27 13:23:07;;;;;;;;;;;;;;;;;;5009343;28;20400;-72
2023/10/27 13:25:33;;;;;;;;;;;;;;;;;;5042678;28;20009;-72
2023/10/27 13:28:00;;;;;;;;;;;;;;;;;;5011175;28;20024;-70
2023/10/27 13:30:25;;;;;;;;;;;;;;;;;;5036259;28;19979;-70
2023/10/27 13:32:51;;;;;;;;;;;;;;;;;;5038127;28;19956;-71
2023/10/27 13:35:20;;;;;;;;;;;;;;;;;;5006189;28;19968;-72
2023/10/27 13:37:46;;;;;;;;;;;;;;;;;;5007566;28;20006;-71
2023/10/27 13:40:14;;;;;;;;;;;;;;;;;;5040732;28;20013;-73
2023/10/27 13:42:39;;;;;;;;;;;;;;;;;;5039739;28;19994;-73
2023/10/27 13:45:05;;;;;;;;;;;;;;;;;;5041440;28;19932;-73
2023/10/27 13:47:32;;;;;;;;;;;;;;;;;;5009701;28;19933;-73
2023/10/27 13:49:58;;;;;;;;;;;;;;;;;;5036750;28;20093;-72
2023/10/27 13:52:24;;;;;;;;;;;;;;;;;;5005423;28;20036;-72
2023/10/27 13:54:50;;;;;;;;;;;;;;;;;;5008276;28;19925;-72
2023/10/27 13:57:16;;;;;;;;;;;;;;;;;;5034521;28;19972;-72
2023/10/27 13:59:42;;;;;;;;;;;;;;;;;;5037949;28;19922;-74
2023/10/27 14:02:09;;;;;;;;;;;;;;;;;;5004660;28;19929;-71
2023/10/27 14:04:35;;;;;;;;;;;;;;;;;;5005641;28;19922;-69
2023/10/27 14:07:01;;;;;;;;;;;;;;;;;;5006640;28;20016;-71
2023/10/27 14:09:29;;;;;;;;;;;;;;;;;;5031153;28;21410;-69
2023/10/27 14:11:56;;;;;;;;;;;;;;;;;;5038345;28;19928;-71
2023/10/27 14:14:22;;;;;;;;;;;;;;;;;;5035687;28;20069;-71
2023/10/27 14:16:48;;;;;;;;;;;;;;;;;;5003674;28;19929;-71
2023/10/27 14:19:14;;;;;;;;;;;;;;;;;;5035510;28;20293;-70
2023/10/27 14:21:41;;;;;;;;;;;;;;;;;;5006251;28;20317;-70
2023/10/27 14:24:07;;;;;;;;;;;;;;;;;;5038908;28;19928;-69
2023/10/27 14:26:33;;;;;;;;;;;;;;;;;;5039417;28;19922;-70
2023/10/27 14:29:02;;;;;;;;;;;;;;;;;;5038841;28;20378;-71
2023/10/27 14:31:28;;;;;;;;;;;;;;;;;;5038670;28;19925;-70
2023/10/27 14:33:54;;;;;;;;;;;;;;;;;;5009716;28;19927;-69
2023/10/27 14:36:20;;;;;;;;;;;;;;;;;;5008570;28;19925;-72
2023/10/27 14:38:46;;;;;;;;;;;;;;;;;;5006173;28;19922;-71
2023/10/27 14:41:12;;;;;;;;;;;;;;;;;;5007259;28;20040;-71
2023/10/27 14:43:38;;;;;;;;;;;;;;;;;;5008364;28;19967;-71
2023/10/27 14:46:04;;;;;;;;;;;;;;;;;;5006357;28;19921;-72
2023/10/27 14:48:30;;;;;;;;;;;;;;;;;;5039478;28;20431;-70
2023/10/27 14:50:56;;;;;;;;;;;;;;;;;;5039335;28;20068;-72
2023/10/27 14:53:23;;;;;;;;;;;;;;;;;;5037920;28;19921;-70
2023/10/27 14:55:48;;;;;;;;;;;;;;;;;;5037275;28;20012;-72
2023/10/27 14:58:14;;;;;;;;;;;;;;;;;;5007241;28;20530;-68
2023/10/27 15:00:41;;;;;;;;;;;;;;;;;;5039693;28;20400;-70
2023/10/27 15:03:07;;;;;;;;;;;;;;;;;;5039108;28;19927;-69
2023/10/27 15:05:33;;;;;;;;;;;;;;;;;;5008049;28;19925;-70
2023/10/27 15:07:59;;;;;;;;;;;;;;;;;;5040621;28;19921;-69
2023/10/27 15:10:25;;;;;;;;;;;;;;;;;;5038540;28;20440;-69
2023/10/27 15:12:51;;;;;;;;;;;;;;;;;;5007963;28;19929;-71
2023/10/27 15:15:17;;;;;;;;;;;;;;;;;;5003403;28;19953;-71
2023/10/27 15:17:43;;;;;;;;;;;;;;;;;;5041968;28;20433;-71
2023/10/27 15:20:10;;;;;;;;;;;;;;;;;;5009864;28;20020;-70
2023/10/27 15:22:36;;;;;;;;;;;;;;;;;;5003849;28;20000;-72
2023/10/27 15:25:04;;;;;;;;;;;;;;;;;;5003531;28;19976;-70
2023/10/27 15:27:31;;;;;;;;;;;;;;;;;;5008417;28;19960;-71
2023/10/27 15:29:57;;;;;;;;;;;;;;;;;;5034657;28;19921;-71
2023/10/27 15:32:23;;;;;;;;;;;;;;;;;;5001789;28;19928;-78
2023/10/27 15:34:49;;;;;;;;;;;;;;;;;;5005693;28;19925;-69
2023/10/27 15:37:15;;;;;;;;;;;;;;;;;;5008253;28;20296;-70
2023/10/27 15:39:41;;;;;;;;;;;;;;;;;;5006463;28;19935;-69
2023/10/27 15:42:08;;;;;;;;;;;;;;;;;;5006455;28;20717;-70
2023/10/27 15:44:34;;;;;;;;;;;;;;;;;;5009750;28;20270;-70
2023/10/27 15:47:01;;;;;;;;;;;;;;;;;;5040802;28;20195;-70
2023/10/27 15:49:27;;;;;;;;;;;;;;;;;;5008641;28;19941;-69
2023/10/27 15:51:53;;;;;;;;;;;;;;;;;;5015698;28;19921;-70
2023/10/27 15:54:18;;;;;;;;;;;;;;;;;;5007416;28;19921;-69
2023/10/27 15:56:44;;;;;;;;;;;;;;;;;;5007291;28;19929;-72
2023/10/27 15:59:10;;;;;;;;;;;;;;;;;;5041200;28;20300;-70
2023/10/27 16:01:36;;;;;;;;;;;;;;;;;;5009352;28;19922;-70
2023/10/27 16:04:03;;;;;;;;;;;;;;;;;;5007988;28;19926;-70
2023/10/27 16:06:29;;;;;;;;;;;;;;;;;;5042500;28;20402;-70
2023/10/27 16:08:55;;;;;;;;;;;;;;;;;;5041690;28;19925;-69
2023/10/27 16:11:23;;;;;;;;;;;;;;;;;;5035058;28;20378;-74
2023/10/27 16:13:48;;;;;;;;;;;;;;;;;;5040792;28;20380;-73
2023/10/27 16:16:17;;;;;;;;;;;;;;;;;;5035352;28;20255;-73
2023/10/27 16:18:43;;;;;;;;;;;;;;;;;;5010670;28;19917;-74
2023/10/27 16:21:09;;;;;;;;;;;;;;;;;;5007221;28;19922;-73
2023/10/27 16:23:35;;;;;;;;;;;;;;;;;;5011696;28;20365;-74
2023/10/27 16:26:05;;;;;;;;;;;;;;;;;;5008142;28;19951;-74
2023/10/27 16:28:31;;;;;;;;;;;;;;;;;;5038724;28;19929;-74
2023/10/27 16:30:57;;;;;;;;;;;;;;;;;;5010509;28;19927;-72
2023/10/27 16:33:23;;;;;;;;;;;;;;;;;;5008627;28;19925;-83
2023/10/27 16:35:49;;;;;;;;;;;;;;;;;;5009789;28;19925;-78
2023/10/27 16:38:14;;;;;;;;;;;;;;;;;;5009818;28;19931;-79